Time;durP1;ratioP1;P1;durP2;ratioP2;P2;SDS_P1;SDS_P2;PMS_P1;PMS_P2;Temp;Humidity;BMP_temperature;BMP_pressure;BME280_temperature;BME280_humidity;BME280_pressure;Samples;Min_cycle;Max_cycle;Signal;HPM_P1;HPM_P2
2022/01/06 00:02:24;;;;;;;5.70;3.70;;;;;;;6.01;63.67;96963.66;5998773;23;20744;-85
2022/01/06 00:04:50;;;;;;;7.05;3.13;;;;;;;5.97;63.43;96959.94;5974540;23;20248;-84
2022/01/06 00:07:16;;;;;;;10.18;3.65;;;;;;;5.99;64.12;96957.91;6031696;23;20303;-84
2022/01/06 00:09:41;;;;;;;8.88;3.13;;;;;;;5.86;63.69;96964.03;6031759;23;20237;-85
2022/01/06 00:12:12;;;;;;;7.38;3.58;;;;;;;5.89;63.92;96975.72;5998604;23;20225;-84
2022/01/06 00:14:53;;;;;;;8.80;3.67;;;;;;;5.99;63.73;96969.03;5975143;23;20270;-83
2022/01/06 00:23:22;;;;;;;8.55;3.00;;;;;;;5.90;64.12;96979.88;6001965;23;20083;-85
2022/01/06 00:25:48;;;;;;;8.02;3.13;;;;;;;5.97;63.89;96971.06;6037409;23;20674;-85
2022/01/06 00:28:14;;;;;;;11.23;4.07;;;;;;;5.97;63.75;96970.28;6031694;23;20169;-85
2022/01/06 00:30:40;;;;;;;8.18;3.22;;;;;;;6.02;64.08;96962.66;6033252;23;20260;-84
2022/01/06 00:33:06;;;;;;;6.68;3.03;;;;;;;5.93;64.24;96974.25;5998238;23;20229;-85
2022/01/06 00:35:31;;;;;;;8.10;3.28;;;;;;;6.08;63.49;96972.09;5998268;23;20151;-84
2022/01/06 00:37:57;;;;;;;9.73;3.75;;;;;;;6.09;63.62;96971.09;6032517;23;20662;-84
2022/01/06 00:40:22;;;;;;;8.57;3.00;;;;;;;5.99;63.87;96961.28;5998744;23;20181;-83
2022/01/06 00:42:48;;;;;;;11.77;3.72;;;;;;;5.99;63.94;96971.63;6022239;23;20254;-84
2022/01/06 00:45:13;;;;;;;5.75;2.85;;;;;;;5.96;64.10;96969.50;6031438;23;20589;-84
2022/01/06 00:47:39;;;;;;;6.85;3.30;;;;;;;5.95;63.78;96983.38;5975231;23;20178;-84
2022/01/06 00:50:05;;;;;;;7.30;2.85;;;;;;;5.92;63.80;96983.81;5999214;23;20317;-85
2022/01/06 00:52:30;;;;;;;7.13;2.95;;;;;;;5.91;64.11;96976.28;5999115;23;20461;-84
2022/01/06 00:54:56;;;;;;;8.30;2.80;;;;;;;5.76;64.90;96971.53;5998109;23;20185;-85
2022/01/06 00:57:21;;;;;;;8.07;3.28;;;;;;;5.76;64.75;96984.44;6034048;23;20190;-85
2022/01/06 00:59:46;;;;;;;8.00;3.08;;;;;;;5.86;64.41;96976.16;5999844;23;20178;-84
2022/01/06 01:02:12;;;;;;;9.20;3.35;;;;;;;5.68;64.54;96964.84;6034409;23;20173;-87
2022/01/06 01:04:37;;;;;;;7.80;3.05;;;;;;;5.85;64.53;96974.59;6034201;23;20402;-85
2022/01/06 01:07:03;;;;;;;12.18;3.67;;;;;;;5.88;64.06;96977.53;6000332;23;20745;-84
2022/01/06 01:09:30;;;;;;;6.22;2.90;;;;;;;5.94;64.64;96992.13;5999473;23;20597;-84
2022/01/06 01:11:55;;;;;;;7.55;2.97;;;;;;;6.00;64.42;96990.53;6000938;23;20271;-84
2022/01/06 01:14:29;;;;;;;8.30;3.38;;;;;;;6.01;63.94;96999.84;5999166;23;20646;-83
2022/01/06 01:17:03;;;;;;;11.65;3.33;;;;;;;6.02;64.09;97000.63;6035617;23;20853;-85
2022/01/06 01:19:30;;;;;;;10.68;4.80;;;;;;;5.96;64.69;97002.28;6000447;23;20297;-86
2022/01/06 01:21:56;;;;;;;6.60;3.58;;;;;;;5.92;64.74;97007.06;6009618;23;20166;-86
2022/01/06 01:24:22;;;;;;;7.78;2.75;;;;;;;5.92;64.46;97004.50;6009344;23;20621;-85
2022/01/06 01:26:48;;;;;;;9.18;3.85;;;;;;;5.84;64.61;96997.03;6009458;23;20162;-86
2022/01/06 01:29:15;;;;;;;6.53;3.17;;;;;;;6.02;64.39;96995.47;6009657;23;20729;-84
2022/01/06 01:31:47;;;;;;;7.22;3.05;;;;;;;6.10;64.62;97006.28;5976740;23;20344;-84
2022/01/06 01:34:13;;;;;;;8.32;2.80;;;;;;;6.10;64.16;97006.28;6035161;23;20607;-83
2022/01/06 01:36:39;;;;;;;8.18;3.20;;;;;;;5.92;64.40;97014.81;6000325;23;20310;-87
2022/01/06 01:39:05;;;;;;;9.57;3.95;;;;;;;6.14;64.44;97010.00;5975831;23;20185;-84
2022/01/06 01:41:31;;;;;;;6.10;2.70;;;;;;;6.17;64.10;97021.72;6000288;23;20277;-84
2022/01/06 01:43:57;;;;;;;8.00;3.25;;;;;;;6.12;64.54;97008.66;5976547;23;20261;-84
2022/01/06 01:46:30;;;;;;;8.65;3.80;;;;;;;6.19;64.54;97019.69;5999855;23;20151;-85
2022/01/06 01:51:34;;;;;;;7.80;3.53;;;;;;;6.18;64.05;97015.53;6002193;23;20272;-85
2022/01/06 01:54:00;;;;;;;12.18;3.28;;;;;;;6.16;63.60;97018.31;6028014;23;20610;-84
2022/01/06 01:56:26;;;;;;;6.25;2.60;;;;;;;6.22;64.46;97023.63;6033440;23;20297;-85
2022/01/06 01:58:51;;;;;;;7.18;3.33;;;;;;;6.05;64.05;97019.09;6005269;23;20225;-85
2022/01/06 02:01:16;;;;;;;12.30;4.10;;;;;;;6.14;64.62;97025.50;5997152;23;20829;-83
2022/01/06 02:03:42;;;;;;;8.32;3.00;;;;;;;6.11;64.57;97017.41;6030552;23;20318;-84
2022/01/06 02:06:07;;;;;;;9.02;3.70;;;;;;;6.01;64.36;97023.09;5998750;23;20175;-84
2022/01/06 02:08:33;;;;;;;6.85;3.30;;;;;;;6.02;64.72;97032.44;6034657;23;20152;-85
2022/01/06 02:10:59;;;;;;;8.85;3.38;;;;;;;6.03;64.31;97031.41;5999983;23;20189;-84
2022/01/06 02:13:28;;;;;;;9.98;2.80;;;;;;;5.97;65.08;97037.47;6000022;23;20514;-84
2022/01/06 02:15:55;;;;;;;7.25;4.53;;;;;;;5.93;64.52;97038.88;6034488;23;20590;-83
2022/01/06 02:18:21;;;;;;;7.38;2.95;;;;;;;6.05;64.71;97047.50;6000485;23;20211;-84
2022/01/06 02:20:46;;;;;;;5.65;2.75;;;;;;;6.10;63.75;97036.50;5999618;23;20256;-84
2022/01/06 02:23:12;;;;;;;9.65;3.10;;;;;;;6.14;64.59;97048.78;5975992;23;20254;-84
2022/01/06 02:25:37;;;;;;;8.27;3.15;;;;;;;6.16;64.32;97051.94;6035984;23;20217;-83
2022/01/06 02:28:03;;;;;;;10.18;3.10;;;;;;;6.13;63.90;97049.00;6036958;23;20287;-84
2022/01/06 02:30:32;;;;;;;7.40;3.35;;;;;;;6.09;64.37;97056.41;6000944;23;20641;-84
2022/01/06 02:33:00;;;;;;;7.95;3.15;;;;;;;6.12;64.28;97065.53;6000149;23;20263;-84
2022/01/06 02:35:27;;;;;;;6.35;3.17;;;;;;;6.24;64.17;97063.78;6034363;23;20259;-84
2022/01/06 02:37:52;;;;;;;7.07;3.25;;;;;;;6.21;64.16;97063.44;6033986;23;20250;-84
2022/01/06 02:40:20;;;;;;;9.65;4.05;;;;;;;6.17;64.02;97063.84;6033559;23;20252;-83
2022/01/06 02:42:50;;;;;;;6.15;2.60;;;;;;;6.23;63.97;97069.16;5999663;23;20586;-84
2022/01/06 02:45:17;;;;;;;9.95;3.20;;;;;;;6.30;64.00;97078.41;5998865;23;20243;-83
2022/01/06 02:47:44;;;;;;;7.68;3.75;;;;;;;6.35;63.71;97075.94;5998711;23;20685;-84
2022/01/06 02:50:12;;;;;;;8.82;3.25;;;;;;;6.27;63.82;97075.47;5974684;23;20190;-84
2022/01/06 02:52:37;;;;;;;6.82;3.10;;;;;;;6.27;63.80;97078.03;5998070;23;20359;-83
2022/01/06 02:55:05;;;;;;;7.50;3.40;;;;;;;6.27;64.03;97084.03;5973731;23;20106;-83
2022/01/06 02:57:30;;;;;;;7.60;2.92;;;;;;;6.27;64.07;97072.88;5973808;23;20618;-83
2022/01/06 02:59:56;;;;;;;9.00;3.47;;;;;;;6.34;64.22;97084.72;6006541;23;20180;-83
2022/01/06 03:02:21;;;;;;;5.22;2.47;;;;;;;6.24;64.01;97078.47;6021978;23;20072;-83
2022/01/06 03:04:47;;;;;;;6.90;3.28;;;;;;;6.27;64.24;97090.97;5973382;23;20704;-83
2022/01/06 03:07:12;;;;;;;5.43;2.88;;;;;;;6.19;64.85;97095.44;5997054;23;20183;-84
2022/01/06 03:09:39;;;;;;;4.18;2.60;;;;;;;6.17;64.87;97100.06;6006736;23;20223;-83
2022/01/06 03:12:10;;;;;;;6.05;2.40;;;;;;;6.13;64.98;97104.06;5973441;23;20264;-83
2022/01/06 03:14:37;;;;;;;4.50;3.17;;;;;;;6.14;65.69;97105.66;5983745;23;20119;-84
2022/01/06 03:17:03;;;;;;;8.20;2.78;;;;;;;6.10;65.63;97109.69;6030618;23;20084;-83
2022/01/06 03:19:28;;;;;;;7.45;3.35;;;;;;;6.09;65.45;97104.72;6030807;23;20446;-83
2022/01/06 03:21:54;;;;;;;5.15;2.80;;;;;;;6.10;65.67;97098.53;6021500;23;20518;-83
2022/01/06 03:24:20;;;;;;;6.47;2.70;;;;;;;6.13;65.80;97098.88;5974199;23;20152;-83
2022/01/06 03:26:46;;;;;;;6.07;2.90;;;;;;;6.14;65.54;97097.91;5974172;23;20468;-84
2022/01/06 03:29:11;;;;;;;6.60;3.10;;;;;;;6.22;65.09;97106.34;6006326;23;20080;-84
2022/01/06 03:31:36;;;;;;;7.32;2.90;;;;;;;6.14;65.91;97103.06;5973659;23;20707;-83
2022/01/06 03:34:02;;;;;;;4.63;2.30;;;;;;;6.17;65.37;97112.97;5973685;23;20262;-83
2022/01/06 03:36:27;;;;;;;8.13;3.38;;;;;;;6.07;65.59;97110.13;5973427;23;20666;-83
2022/01/06 03:38:53;;;;;;;6.38;3.10;;;;;;;6.02;65.66;97099.63;6007353;23;20595;-83
2022/01/06 03:41:18;;;;;;;7.47;3.38;;;;;;;6.11;65.32;97102.72;5997279;23;20301;-84
2022/01/06 03:43:43;;;;;;;5.85;2.65;;;;;;;6.13;65.25;97106.63;5996970;23;20263;-83
2022/01/06 03:46:09;;;;;;;7.82;3.45;;;;;;;6.16;65.28;97108.78;5974065;23;20172;-83
2022/01/06 03:48:34;;;;;;;6.10;2.67;;;;;;;6.04;65.88;97110.53;6006407;23;20139;-84
2022/01/06 03:50:59;;;;;;;8.35;2.67;;;;;;;5.97;66.15;97118.38;5973562;23;20152;-83
2022/01/06 03:53:25;;;;;;;6.07;2.60;;;;;;;6.02;65.06;97120.31;5973017;23;20182;-83
2022/01/06 03:55:50;;;;;;;4.68;2.88;;;;;;;6.03;64.90;97116.69;5973483;23;20518;-83
2022/01/06 03:58:16;;;;;;;5.03;3.25;;;;;;;5.94;65.31;97107.63;5949785;23;20149;-84
2022/01/06 04:00:41;;;;;;;7.97;3.47;;;;;;;5.86;65.22;97119.06;5973824;23;20339;-84
2022/01/06 04:03:06;;;;;;;6.78;3.20;;;;;;;5.80;65.54;97110.34;5950596;23;20219;-83
2022/01/06 04:05:33;;;;;;;5.95;3.20;;;;;;;5.82;65.66;97120.47;5973189;23;20168;-83
2022/01/06 04:07:59;;;;;;;5.78;2.70;;;;;;;5.71;65.33;97124.56;5997161;23;20350;-84
2022/01/06 04:10:24;;;;;;;7.20;3.03;;;;;;;5.67;65.25;97126.00;6007797;23;20195;-84
2022/01/06 04:12:50;;;;;;;8.27;3.60;;;;;;;5.67;65.92;97128.56;5982897;23;20227;-84
2022/01/06 04:15:15;;;;;;;9.50;3.17;;;;;;;5.58;65.81;97127.28;5983648;23;20080;-84
2022/01/06 04:17:41;;;;;;;8.07;3.33;;;;;;;5.53;66.27;97140.03;6006925;23;20167;-83
2022/01/06 04:20:08;;;;;;;7.38;3.28;;;;;;;5.51;66.11;97134.31;5972915;23;20603;-83
2022/01/06 04:22:34;;;;;;;4.90;2.75;;;;;;;5.48;66.61;97126.97;6006264;23;20191;-84
2022/01/06 04:25:00;;;;;;;6.65;3.30;;;;;;;5.45;66.08;97135.94;6006715;23;20642;-83
2022/01/06 04:27:26;;;;;;;6.38;3.35;;;;;;;5.46;65.96;97139.31;6006075;23;20290;-84
2022/01/06 04:29:51;;;;;;;9.88;3.33;;;;;;;5.49;66.00;97144.84;5973420;23;20593;-84
2022/01/06 04:32:16;;;;;;;8.10;3.67;;;;;;;5.45;66.29;97146.28;5950635;23;20243;-83
2022/01/06 04:34:42;;;;;;;7.05;3.38;;;;;;;5.36;66.95;97150.91;6006851;23;20199;-83
2022/01/06 04:37:07;;;;;;;8.93;3.78;;;;;;;5.37;66.53;97152.47;6007540;23;20186;-84
2022/01/06 04:39:33;;;;;;;6.97;3.65;;;;;;;5.30;66.62;97144.00;5974491;23;20174;-83
2022/01/06 04:41:58;;;;;;;8.60;3.88;;;;;;;5.39;67.25;97165.19;5983669;23;20481;-83
2022/01/06 04:44:23;;;;;;;6.72;4.25;;;;;;;5.38;67.12;97169.56;5983411;23;20183;-84
2022/01/06 04:46:49;;;;;;;7.55;3.00;;;;;;;5.36;66.77;97158.63;5973262;23;20649;-84
2022/01/06 04:49:14;;;;;;;8.73;3.90;;;;;;;5.31;67.06;97168.03;5983895;23;20175;-84
2022/01/06 04:51:40;;;;;;;7.57;3.33;;;;;;;5.35;67.19;97164.81;5983150;23;20302;-84
2022/01/06 04:54:05;;;;;;;7.60;3.65;;;;;;;5.30;67.45;97171.63;5949699;23;20194;-84
2022/01/06 04:56:36;;;;;;;10.27;3.65;;;;;;;5.29;66.58;97175.97;5950063;23;20091;-84
2022/01/06 04:59:03;;;;;;;7.63;3.78;;;;;;;5.35;66.67;97180.31;5983314;23;20160;-83
2022/01/06 05:01:28;;;;;;;6.28;3.15;;;;;;;5.30;66.33;97184.53;5982174;23;20333;-84
2022/01/06 05:03:54;;;;;;;9.43;3.63;;;;;;;5.31;66.67;97189.47;5949398;23;20167;-83
2022/01/06 05:06:19;;;;;;;6.25;3.20;;;;;;;5.30;66.67;97182.72;5983081;23;20205;-83
2022/01/06 05:08:45;;;;;;;6.85;2.85;;;;;;;5.33;66.81;97184.91;5982044;23;20302;-83
2022/01/06 05:11:10;;;;;;;7.95;3.55;;;;;;;5.34;66.99;97185.69;5996835;23;20278;-83
2022/01/06 05:13:35;;;;;;;8.65;3.40;;;;;;;5.30;67.02;97187.91;5972683;23;20223;-83
2022/01/06 05:16:00;;;;;;;8.38;3.33;;;;;;;5.38;67.08;97190.22;5949262;23;20188;-83
2022/01/06 05:18:26;;;;;;;7.93;3.58;;;;;;;5.31;67.53;97193.84;5948529;23;20188;-83
2022/01/06 05:20:51;;;;;;;9.20;3.78;;;;;;;5.22;67.91;97201.06;5972278;23;20076;-83
2022/01/06 05:23:19;;;;;;;6.88;3.42;;;;;;;5.15;68.27;97202.88;6005458;23;20175;-83
2022/01/06 05:25:44;;;;;;;9.30;4.13;;;;;;;5.11;68.72;97201.72;5972924;23;20187;-83
2022/01/06 05:28:09;;;;;;;11.35;4.32;;;;;;;5.15;68.50;97213.22;5972268;23;20280;-83
2022/01/06 05:30:35;;;;;;;12.23;5.70;;;;;;;4.97;69.03;97212.13;5972968;23;20666;-83
2022/01/06 05:33:00;;;;;;;9.02;4.35;;;;;;;5.08;68.30;97221.00;6006676;23;20271;-82
2022/01/06 05:35:26;;;;;;;7.28;4.40;;;;;;;5.11;68.88;97225.75;5975284;23;20235;-83
2022/01/06 05:37:51;;;;;;;10.30;4.30;;;;;;;5.08;68.46;97215.84;5973480;23;20144;-83
2022/01/06 05:40:16;;;;;;;8.63;4.85;;;;;;;5.18;68.50;97229.06;5973211;23;20217;-83
2022/01/06 05:42:42;;;;;;;11.23;5.90;;;;;;;5.18;68.56;97225.72;5998292;23;20281;-83
2022/01/06 05:45:09;;;;;;;9.38;5.45;;;;;;;5.14;68.89;97237.44;5975343;23;20235;-82
2022/01/06 05:47:34;;;;;;;9.65;4.53;;;;;;;4.93;69.42;97235.97;6011269;23;20171;-83
2022/01/06 05:50:00;;;;;;;5.78;2.45;;;;;;;4.96;68.64;97240.72;5979323;23;20227;-82
2022/01/06 05:52:25;;;;;;;9.48;2.97;;;;;;;4.50;70.66;97239.91;6035572;23;20232;-83
2022/01/06 05:54:51;;;;;;;6.35;2.38;;;;;;;4.80;69.27;97249.72;6015502;23;20273;-83
2022/01/06 05:57:16;;;;;;;2.92;1.50;;;;;;;4.85;68.01;97242.16;5997547;23;20669;-82
2022/01/06 05:59:42;;;;;;;4.88;1.48;;;;;;;4.85;67.84;97247.31;5996195;23;20144;-81
2022/01/06 06:02:08;;;;;;;4.18;2.38;;;;;;;4.74;68.64;97255.69;6029601;23;20288;-80
2022/01/06 06:04:33;;;;;;;3.42;1.92;;;;;;;4.79;68.60;97258.44;6031280;23;20586;-81
2022/01/06 06:06:59;;;;;;;5.35;2.60;;;;;;;4.81;69.16;97262.41;6055532;23;20179;-82
2022/01/06 06:09:24;;;;;;;3.83;2.13;;;;;;;4.87;68.57;97263.38;6005826;23;20207;-82
2022/01/06 06:11:49;;;;;;;6.35;2.58;;;;;;;4.87;68.45;97263.38;5997282;23;20280;-81
2022/01/06 06:14:15;;;;;;;6.13;2.60;;;;;;;4.95;68.42;97265.72;5996731;23;20180;-81
2022/01/06 06:16:40;;;;;;;5.13;2.60;;;;;;;5.01;68.48;97272.63;6029984;23;20641;-82
2022/01/06 06:19:05;;;;;;;7.20;2.50;;;;;;;5.01;67.93;97262.31;5997442;23;20341;-82
2022/01/06 06:21:31;;;;;;;4.72;2.65;;;;;;;5.02;68.15;97261.31;5996920;23;20264;-82
2022/01/06 06:23:56;;;;;;;4.63;2.42;;;;;;;5.01;68.25;97264.13;6031470;23;20159;-82
2022/01/06 06:26:22;;;;;;;8.90;3.22;;;;;;;5.04;67.47;97264.50;5996975;23;20068;-82
2022/01/06 06:28:47;;;;;;;11.38;3.33;;;;;;;5.03;67.71;97265.47;6030647;23;20173;-82
2022/01/06 06:31:12;;;;;;;5.45;2.95;;;;;;;5.01;67.93;97261.53;6030699;23;20224;-81
2022/01/06 06:33:38;;;;;;;6.13;2.30;;;;;;;5.09;67.44;97273.38;6055249;23;20185;-82
2022/01/06 06:36:04;;;;;;;7.68;2.67;;;;;;;5.00;66.98;97260.75;5997266;23;20202;-82
2022/01/06 06:38:29;;;;;;;5.78;2.63;;;;;;;4.93;66.79;97265.13;5997573;23;20166;-82
2022/01/06 06:40:55;;;;;;;5.88;2.90;;;;;;;4.81;67.22;97261.63;5997821;23;20467;-81
2022/01/06 06:43:21;;;;;;;7.28;2.75;;;;;;;4.72;67.29;97252.53;5997428;23;20253;-81
2022/01/06 06:45:46;;;;;;;4.90;3.17;;;;;;;4.67;67.40;97259.06;5998324;23;20321;-81
2022/01/06 06:48:13;;;;;;;8.05;3.65;;;;;;;4.61;67.71;97257.34;6031547;23;20255;-81
2022/01/06 06:50:38;;;;;;;5.63;2.58;;;;;;;4.54;67.56;97271.22;6031216;23;20277;-81
2022/01/06 06:53:04;;;;;;;6.80;2.88;;;;;;;4.54;68.11;97276.38;6030571;23;20532;-81
2022/01/06 06:55:30;;;;;;;3.83;2.28;;;;;;;4.57;67.57;97283.72;6030708;23;20256;-81
2022/01/06 06:57:55;;;;;;;5.60;2.20;;;;;;;4.48;67.22;97286.50;5997226;23;20079;-81
2022/01/06 07:00:21;;;;;;;6.93;2.50;;;;;;;4.46;67.23;97285.16;5996536;23;20376;-81
2022/01/06 07:02:46;;;;;;;7.22;2.38;;;;;;;4.48;66.94;97290.88;5996766;23;20175;-81
2022/01/06 07:05:12;;;;;;;5.25;2.92;;;;;;;4.37;67.41;97291.50;6054424;23;20162;-81
2022/01/06 07:07:37;;;;;;;4.47;2.58;;;;;;;4.40;67.64;97298.81;5996693;23;20613;-81
2022/01/06 07:10:03;;;;;;;7.20;2.80;;;;;;;4.36;67.39;97298.44;6007283;23;20526;-81
2022/01/06 07:12:30;;;;;;;8.23;3.38;;;;;;;4.36;67.66;97305.38;6022165;23;20637;-81
2022/01/06 07:14:57;;;;;;;8.55;2.90;;;;;;;4.30;67.97;97307.78;5999006;23;20598;-81
2022/01/06 07:17:22;;;;;;;7.13;3.42;;;;;;;4.25;68.45;97312.75;6031488;23;20456;-81
2022/01/06 07:19:48;;;;;;;5.70;2.70;;;;;;;4.24;68.37;97313.72;5998094;23;20261;-81
2022/01/06 07:22:13;;;;;;;7.65;3.30;;;;;;;4.17;68.25;97322.47;5997150;23;20233;-81
2022/01/06 07:24:39;;;;;;;6.28;2.85;;;;;;;4.11;67.90;97327.41;5998010;23;20526;-81
2022/01/06 07:27:04;;;;;;;7.47;2.67;;;;;;;4.12;67.46;97331.56;6031228;23;20186;-81
2022/01/06 07:29:30;;;;;;;7.05;2.92;;;;;;;4.04;68.60;97338.69;6031327;23;20224;-81
2022/01/06 07:31:55;;;;;;;9.20;2.85;;;;;;;3.94;67.79;97339.09;5997657;23;20087;-81
2022/01/06 07:34:21;;;;;;;10.07;3.20;;;;;;;3.90;68.27;97343.84;5997537;23;20178;-81
2022/01/06 07:36:46;;;;;;;7.63;3.38;;;;;;;3.89;68.37;97347.44;6030712;23;20168;-81
2022/01/06 07:39:11;;;;;;;7.53;2.83;;;;;;;3.84;68.13;97336.91;5998560;23;20174;-81
2022/01/06 07:41:37;;;;;;;7.95;3.78;;;;;;;3.91;68.08;97345.44;6030900;23;20169;-81
2022/01/06 07:44:07;;;;;;;7.10;3.58;;;;;;;3.94;67.70;97357.13;6020935;23;20280;-81
2022/01/06 07:46:33;;;;;;;4.22;3.05;;;;;;;3.92;68.16;97353.94;5997874;23;20189;-81
2022/01/06 07:48:58;;;;;;;13.70;3.35;;;;;;;3.87;68.26;97359.72;6030061;23;20318;-81
2022/01/06 07:51:25;;;;;;;6.85;3.30;;;;;;;3.89;68.26;97368.03;6028802;23;20606;-80
2022/01/06 07:53:51;;;;;;;8.85;3.33;;;;;;;3.90;68.29;97369.59;6025921;23;20165;-80
2022/01/06 07:56:16;;;;;;;9.30;4.03;;;;;;;3.96;68.85;97362.06;6030066;23;20335;-80
2022/01/06 07:58:42;;;;;;;10.23;3.30;;;;;;;3.97;67.79;97368.81;5971345;23;20243;-80
2022/01/06 08:01:09;;;;;;;6.82;2.75;;;;;;;3.93;67.78;97369.22;5996195;23;20176;-80
2022/01/06 08:03:34;;;;;;;7.13;3.45;;;;;;;3.97;67.92;97371.41;5996290;23;20158;-80
2022/01/06 08:06:00;;;;;;;6.03;2.75;;;;;;;3.98;68.20;97367.84;6020579;23;20672;-80
2022/01/06 08:08:25;;;;;;;7.90;2.85;;;;;;;3.99;68.42;97375.34;6029746;23;20201;-82
2022/01/06 08:10:50;;;;;;;9.57;3.25;;;;;;;4.03;68.31;97386.09;5994215;23;20225;-81
2022/01/06 08:13:16;;;;;;;7.38;3.33;;;;;;;4.00;68.37;97379.53;5997574;23;20198;-79
2022/01/06 08:15:41;;;;;;;10.65;3.72;;;;;;;4.05;69.03;97381.53;6030091;23;20325;-85
2022/01/06 08:18:07;;;;;;;10.63;5.18;;;;;;;4.17;69.14;97384.31;5997739;23;20181;-83
2022/01/06 08:20:35;;;;;;;7.35;3.83;;;;;;;4.28;68.74;97389.66;5997963;23;20140;-84
2022/01/06 08:23:00;;;;;;;7.30;3.60;;;;;;;4.39;68.48;97387.47;5998795;23;20151;-83
2022/01/06 08:25:26;;;;;;;8.57;3.90;;;;;;;4.43;68.49;97388.66;5997307;23;20205;-82
2022/01/06 08:27:51;;;;;;;9.60;3.58;;;;;;;4.44;68.95;97391.03;5998019;23;20151;-82
2022/01/06 08:30:17;;;;;;;9.18;4.10;;;;;;;4.54;68.29;97384.69;6007714;23;20263;-82
2022/01/06 08:32:42;;;;;;;10.18;4.35;;;;;;;4.52;68.57;97392.59;6000093;23;20415;-82
2022/01/06 08:35:08;;;;;;;9.25;3.63;;;;;;;4.58;68.31;97399.56;5999603;23;20181;-80
2022/01/06 08:37:33;;;;;;;6.57;3.45;;;;;;;4.52;68.12;97407.28;5999333;23;20260;-82
2022/01/06 08:39:58;;;;;;;6.53;3.63;;;;;;;4.53;67.92;97409.69;6024220;23;20335;-82
2022/01/06 08:42:24;;;;;;;8.38;3.70;;;;;;;4.53;67.83;97403.75;5998608;23;20566;-82
2022/01/06 08:44:49;;;;;;;8.05;3.55;;;;;;;4.55;68.13;97405.09;6031621;23;20178;-82
2022/01/06 08:47:15;;;;;;;9.75;3.97;;;;;;;4.61;67.87;97403.50;5997725;23;20244;-82
2022/01/06 08:49:41;;;;;;;7.00;3.15;;;;;;;4.75;67.91;97405.09;6030529;23;20080;-81
2022/01/06 08:52:07;;;;;;;6.32;3.33;;;;;;;4.78;66.97;97402.13;5997314;23;20595;-81
2022/01/06 08:54:33;;;;;;;8.88;3.35;;;;;;;4.89;67.25;97411.03;5996128;23;20263;-81
2022/01/06 08:56:58;;;;;;;8.07;2.75;;;;;;;4.86;67.20;97406.25;5995522;23;20186;-81
2022/01/06 08:59:24;;;;;;;9.20;3.70;;;;;;;4.82;67.51;97416.19;5997421;23;20221;-81
2022/01/06 09:01:49;;;;;;;8.07;4.00;;;;;;;4.79;67.83;97410.66;6031865;23;20163;-82
2022/01/06 09:04:15;;;;;;;7.45;2.83;;;;;;;4.96;67.57;97421.34;5972845;23;20661;-82
2022/01/06 09:06:40;;;;;;;6.85;3.13;;;;;;;4.97;67.51;97423.72;5989152;23;20205;-82
2022/01/06 09:09:06;;;;;;;10.23;2.80;;;;;;;5.02;67.73;97429.06;6028968;23;20249;-82
2022/01/06 09:11:31;;;;;;;7.47;2.55;;;;;;;5.05;67.65;97428.66;6029364;23;20210;-81
2022/01/06 09:13:56;;;;;;;7.22;3.60;;;;;;;5.09;67.30;97428.25;5995847;23;20601;-82
2022/01/06 09:16:23;;;;;;;7.07;3.60;;;;;;;5.14;67.32;97431.81;6028764;23;20242;-82
2022/01/06 09:18:49;;;;;;;5.43;2.67;;;;;;;5.18;67.27;97432.19;6031055;23;20258;-81
2022/01/06 09:21:16;;;;;;;8.55;2.75;;;;;;;5.13;67.53;97432.00;5996962;23;20241;-81
2022/01/06 09:23:42;;;;;;;8.63;2.70;;;;;;;5.06;67.90;97437.97;6031597;23;20186;-82
2022/01/06 09:26:07;;;;;;;7.18;2.42;;;;;;;5.19;67.35;97436.34;5998871;23;20614;-81
2022/01/06 09:28:32;;;;;;;8.80;2.50;;;;;;;5.21;66.88;97442.91;6030656;23;20577;-82
2022/01/06 09:30:58;;;;;;;6.72;2.80;;;;;;;5.20;67.42;97441.31;6020717;23;20273;-81
2022/01/06 09:33:23;;;;;;;8.38;3.05;;;;;;;5.40;67.12;97445.63;6030917;23;20162;-82
2022/01/06 09:35:51;;;;;;;6.50;2.92;;;;;;;5.47;67.40;97450.75;6031440;23;20057;-82
2022/01/06 09:38:17;;;;;;;7.28;2.42;;;;;;;5.57;67.39;97459.69;6006047;23;20334;-81
2022/01/06 09:40:43;;;;;;;9.10;3.38;;;;;;;5.60;67.22;97459.28;5996861;23;20151;-82
2022/01/06 09:43:12;;;;;;;4.43;2.08;;;;;;;5.77;67.64;97471.69;5997129;23;20602;-82
2022/01/06 09:45:37;;;;;;;5.70;2.50;;;;;;;5.82;66.73;97474.47;6008496;23;20236;-82
2022/01/06 09:48:04;;;;;;;4.88;2.38;;;;;;;5.88;66.17;97471.06;6029796;23;20214;-82
2022/01/06 09:50:30;;;;;;;6.57;2.15;;;;;;;5.97;66.80;97475.00;5998647;23;20636;-82
2022/01/06 09:52:55;;;;;;;3.92;2.03;;;;;;;6.03;65.91;97478.56;5999540;23;20265;-82
2022/01/06 09:55:21;;;;;;;5.22;2.40;;;;;;;6.00;66.14;97486.75;5999705;23;20587;-82
2022/01/06 09:58:05;;;;;;;5.90;2.28;;;;;;;5.94;66.17;97479.78;5997650;23;20175;-82
2022/01/06 10:00:32;;;;;;;6.63;2.22;;;;;;;6.27;64.03;97484.00;5997688;23;20261;-82
2022/01/06 10:03:01;;;;;;;5.10;2.10;;;;;;;6.18;64.74;97478.28;6032538;23;20285;-82
2022/01/06 10:05:26;;;;;;;6.68;2.50;;;;;;;6.21;65.03;97477.09;6031517;23;20220;-82
2022/01/06 10:07:53;;;;;;;9.52;2.15;;;;;;;6.10;64.38;97471.56;6030596;23;20186;-82
2022/01/06 10:10:24;;;;;;;9.27;2.47;;;;;;;5.92;63.68;97466.28;5996840;23;20166;-82
2022/01/06 10:13:01;;;;;;;4.03;2.08;;;;;;;5.90;63.83;97465.69;5998789;23;20339;-82
2022/01/06 10:15:28;;;;;;;4.57;1.65;;;;;;;6.19;63.83;97480.66;6030391;23;20575;-83
2022/01/06 10:17:55;;;;;;;7.40;1.60;;;;;;;6.27;63.16;97476.22;5995840;23;20329;-83
2022/01/06 10:20:27;;;;;;;4.28;1.60;;;;;;;6.07;62.90;97472.00;5972886;23;20893;-83
2022/01/06 10:22:54;;;;;;;5.65;2.08;;;;;;;6.12;63.62;97472.16;5997070;23;20566;-83
2022/01/06 10:25:22;;;;;;;6.43;3.03;;;;;;;6.09;63.41;97479.53;5973147;23;20258;-82
2022/01/06 10:27:49;;;;;;;9.45;2.95;;;;;;;6.33;64.12;97468.44;6029808;23;20590;-83
2022/01/06 10:30:16;;;;;;;7.30;2.08;;;;;;;6.37;63.23;97468.81;5997700;23;20348;-82
2022/01/06 10:32:42;;;;;;;4.63;1.50;;;;;;;6.36;62.18;97460.25;5996400;23;20274;-82
2022/01/06 10:35:09;;;;;;;6.95;1.73;;;;;;;6.40;62.35;97465.03;5995674;23;20373;-83
2022/01/06 10:37:40;;;;;;;7.50;1.98;;;;;;;6.14;61.74;97470.16;6029949;23;20143;-84
2022/01/06 10:40:07;;;;;;;9.45;2.50;;;;;;;6.34;60.83;97469.22;5996509;23;20178;-83
2022/01/06 10:42:34;;;;;;;5.15;1.65;;;;;;;6.38;60.77;97473.78;5995449;23;20190;-83
2022/01/06 10:45:09;;;;;;;6.18;1.83;;;;;;;6.41;60.84;97474.34;6005891;23;20622;-84
2022/01/06 10:47:40;;;;;;;8.03;2.60;;;;;;;6.44;60.46;97471.34;5972612;23;20174;-83
2022/01/06 10:50:22;;;;;;;6.50;1.90;;;;;;;6.44;60.12;97472.13;5972191;23;20185;-84
2022/01/06 10:52:54;;;;;;;6.35;1.80;;;;;;;6.52;60.21;97469.28;6054043;23;20589;-83
2022/01/06 10:55:19;;;;;;;5.28;1.23;;;;;;;6.66;60.56;97474.38;5995430;23;20238;-82
2022/01/06 10:57:50;;;;;;;6.55;1.58;;;;;;;6.49;61.21;97474.88;6053919;23;20168;-82
2022/01/06 11:00:16;;;;;;;7.80;1.90;;;;;;;6.39;61.90;97484.91;5996150;23;20224;-83
2022/01/06 11:02:42;;;;;;;6.90;1.55;;;;;;;6.35;61.17;97476.78;6029102;23;20244;-82
2022/01/06 11:05:07;;;;;;;9.60;2.63;;;;;;;6.62;60.02;97475.81;6019815;23;20352;-83
2022/01/06 11:07:33;;;;;;;8.77;1.70;;;;;;;6.62;59.67;97468.06;6028460;23;20610;-83
2022/01/06 11:09:58;;;;;;;5.95;1.85;;;;;;;6.71;59.62;97466.78;5993228;23;20174;-83
2022/01/06 11:12:27;;;;;;;7.32;1.67;;;;;;;6.76;59.18;97464.34;6010419;23;20177;-83
2022/01/06 11:14:53;;;;;;;4.00;1.30;;;;;;;6.73;58.51;97472.50;5994470;23;20260;-83
2022/01/06 11:17:23;;;;;;;7.20;1.35;;;;;;;6.89;58.77;97478.97;6028821;23;20226;-83
2022/01/06 11:19:49;;;;;;;6.00;1.88;;;;;;;6.78;59.73;97477.84;5996260;23;20665;-83
2022/01/06 11:22:15;;;;;;;6.45;2.33;;;;;;;6.72;60.94;97483.88;5996089;23;20613;-83
2022/01/06 11:24:51;;;;;;;6.82;2.05;;;;;;;6.59;59.56;97471.84;5995394;23;20189;-83
2022/01/06 11:27:16;;;;;;;6.95;1.98;;;;;;;6.80;59.85;97477.63;6030178;23;20108;-83
2022/01/06 11:29:43;;;;;;;10.00;1.98;;;;;;;6.67;60.51;97471.56;5972682;23;20554;-82
2022/01/06 11:32:22;;;;;;;6.85;2.08;;;;;;;6.62;60.07;97483.56;6054166;23;20292;-83
2022/01/06 11:35:01;;;;;;;4.10;1.35;;;;;;;6.68;59.62;97474.94;5971427;23;20159;-83
2022/01/06 11:37:38;;;;;;;5.72;1.42;;;;;;;6.58;59.75;97478.03;6029724;23;20213;-83
2022/01/06 11:40:04;;;;;;;4.82;1.90;;;;;;;6.90;58.28;97467.59;5972421;23;20090;-85
2022/01/06 11:42:29;;;;;;;5.32;1.17;;;;;;;6.84;58.62;97469.25;5994271;23;20556;-85
2022/01/06 11:44:55;;;;;;;6.40;1.73;;;;;;;6.85;58.17;97468.22;6027857;23;20266;-84
2022/01/06 11:47:35;;;;;;;5.78;1.70;;;;;;;6.74;58.45;97463.75;6027977;23;20322;-84